sensor_id;sensor_type;location;lat;lon;timestamp;P1;durP1;ratioP1;P2;durP2;ratioP2
64816;SDS011;53289;45.602;11.904;2023-02-18T00:01:30;128.50;;;52.92;;
64816;SDS011;53289;45.602;11.904;2023-02-18T00:03:57;135.48;;;53.90;;
64816;SDS011;53289;45.602;11.904;2023-02-18T00:06:25;131.65;;;55.58;;
64816;SDS011;53289;45.602;11.904;2023-02-18T00:08:52;136.52;;;53.40;;
64816;SDS011;53289;45.602;11.904;2023-02-18T00:11:19;114.72;;;47.53;;
64816;SDS011;53289;45.602;11.904;2023-02-18T00:13:49;131.40;;;54.17;;
64816;SDS011;53289;45.602;11.904;2023-02-18T00:16:28;143.10;;;57.88;;
64816;SDS011;53289;45.602;11.904;2023-02-18T00:18:56;141.85;;;55.10;;
64816;SDS011;53289;45.602;11.904;2023-02-18T00:21:23;127.57;;;50.00;;
64816;SDS011;53289;45.602;11.904;2023-02-18T00:23:49;121.30;;;50.80;;
64816;SDS011;53289;45.602;11.904;2023-02-18T00:26:16;142.18;;;54.72;;
64816;SDS011;53289;45.602;11.904;2023-02-18T00:28:43;134.00;;;54.50;;
64816;SDS011;53289;45.602;11.904;2023-02-18T00:31:13;114.22;;;47.25;;
64816;SDS011;53289;45.602;11.904;2023-02-18T00:33:41;126.93;;;51.05;;
64816;SDS011;53289;45.602;11.904;2023-02-18T00:36:08;136.85;;;55.00;;
64816;SDS011;53289;45.602;11.904;2023-02-18T00:38:36;132.25;;;53.75;;
64816;SDS011;53289;45.602;11.904;2023-02-18T00:41:02;126.65;;;50.65;;
64816;SDS011;53289;45.602;11.904;2023-02-18T00:43:28;128.10;;;54.10;;
64816;SDS011;53289;45.602;11.904;2023-02-18T00:45:55;115.63;;;47.08;;
64816;SDS011;53289;45.602;11.904;2023-02-18T00:48:20;132.98;;;55.53;;
64816;SDS011;53289;45.602;11.904;2023-02-18T00:50:46;115.28;;;49.47;;
64816;SDS011;53289;45.602;11.904;2023-02-18T00:53:12;127.05;;;51.30;;
64816;SDS011;53289;45.602;11.904;2023-02-18T00:55:39;106.88;;;45.75;;
64816;SDS011;53289;45.602;11.904;2023-02-18T00:58:06;127.47;;;55.13;;
64816;SDS011;53289;45.602;11.904;2023-02-18T01:00:32;116.50;;;49.42;;
64816;SDS011;53289;45.602;11.904;2023-02-18T01:02:58;102.75;;;45.70;;
64816;SDS011;53289;45.602;11.904;2023-02-18T01:05:23;99.35;;;45.97;;
64816;SDS011;53289;45.602;11.904;2023-02-18T01:07:51;101.95;;;44.13;;
64816;SDS011;53289;45.602;11.904;2023-02-18T01:10:16;93.65;;;42.20;;
64816;SDS011;53289;45.602;11.904;2023-02-18T01:12:42;115.68;;;50.45;;
64816;SDS011;53289;45.602;11.904;2023-02-18T01:15:08;118.78;;;49.30;;
64816;SDS011;53289;45.602;11.904;2023-02-18T01:17:36;97.63;;;43.50;;
64816;SDS011;53289;45.602;11.904;2023-02-18T01:20:02;94.10;;;40.35;;
64816;SDS011;53289;45.602;11.904;2023-02-18T01:22:28;98.05;;;42.08;;
64816;SDS011;53289;45.602;11.904;2023-02-18T01:24:54;101.30;;;42.50;;
64816;SDS011;53289;45.602;11.904;2023-02-18T01:27:20;86.65;;;38.78;;
64816;SDS011;53289;45.602;11.904;2023-02-18T01:29:46;97.30;;;42.50;;
64816;SDS011;53289;45.602;11.904;2023-02-18T01:32:12;104.47;;;43.53;;
64816;SDS011;53289;45.602;11.904;2023-02-18T01:34:38;93.10;;;41.65;;
64816;SDS011;53289;45.602;11.904;2023-02-18T01:37:03;81.03;;;38.00;;
64816;SDS011;53289;45.602;11.904;2023-02-18T01:39:29;109.35;;;47.50;;
64816;SDS011;53289;45.602;11.904;2023-02-18T01:41:55;86.82;;;40.30;;
64816;SDS011;53289;45.602;11.904;2023-02-18T01:44:25;101.35;;;43.80;;
64816;SDS011;53289;45.602;11.904;2023-02-18T01:46:52;102.28;;;45.83;;
64816;SDS011;53289;45.602;11.904;2023-02-18T01:49:29;98.60;;;40.80;;
64816;SDS011;53289;45.602;11.904;2023-02-18T01:51:59;86.88;;;38.38;;
64816;SDS011;53289;45.602;11.904;2023-02-18T01:54:36;100.78;;;43.88;;
64816;SDS011;53289;45.602;11.904;2023-02-18T01:57:08;88.47;;;38.97;;
64816;SDS011;53289;45.602;11.904;2023-02-18T01:59:39;109.55;;;47.35;;
64816;SDS011;53289;45.602;11.904;2023-02-18T02:02:06;86.38;;;38.40;;
64816;SDS011;53289;45.602;11.904;2023-02-18T02:04:34;96.90;;;39.20;;
64816;SDS011;53289;45.602;11.904;2023-02-18T02:07:01;81.20;;;38.10;;
64816;SDS011;53289;45.602;11.904;2023-02-18T02:09:27;82.15;;;36.45;;
64816;SDS011;53289;45.602;11.904;2023-02-18T02:31:31;100.07;;;42.03;;
64816;SDS011;53289;45.602;11.904;2023-02-18T02:37:15;106.68;;;45.90;;
64816;SDS011;53289;45.602;11.904;2023-02-18T02:45:42;89.55;;;39.35;;
64816;SDS011;53289;45.602;11.904;2023-02-18T02:48:32;92.38;;;41.05;;
64816;SDS011;53289;45.602;11.904;2023-02-18T02:51:12;94.68;;;41.03;;
64816;SDS011;53289;45.602;11.904;2023-02-18T02:53:43;84.72;;;40.15;;
64816;SDS011;53289;45.602;11.904;2023-02-18T02:56:12;90.15;;;38.45;;
64816;SDS011;53289;45.602;11.904;2023-02-18T02:58:39;81.70;;;37.53;;
64816;SDS011;53289;45.602;11.904;2023-02-18T03:03:50;89.95;;;38.83;;
64816;SDS011;53289;45.602;11.904;2023-02-18T03:14:43;118.20;;;50.83;;
64816;SDS011;53289;45.602;11.904;2023-02-18T03:17:23;93.82;;;41.75;;
64816;SDS011;53289;45.602;11.904;2023-02-18T03:19:55;87.82;;;40.83;;
64816;SDS011;53289;45.602;11.904;2023-02-18T03:22:31;98.97;;;41.90;;
64816;SDS011;53289;45.602;11.904;2023-02-18T03:25:02;87.03;;;39.58;;
64816;SDS011;53289;45.602;11.904;2023-02-18T03:27:33;100.78;;;42.80;;
64816;SDS011;53289;45.602;11.904;2023-02-18T03:30:47;95.05;;;41.45;;
64816;SDS011;53289;45.602;11.904;2023-02-18T03:33:17;87.95;;;39.40;;
64816;SDS011;53289;45.602;11.904;2023-02-18T03:35:49;93.38;;;42.08;;
64816;SDS011;53289;45.602;11.904;2023-02-18T03:40:57;104.72;;;44.83;;
64816;SDS011;53289;45.602;11.904;2023-02-18T03:43:23;108.82;;;46.92;;
64816;SDS011;53289;45.602;11.904;2023-02-18T03:45:49;103.30;;;44.83;;
64816;SDS011;53289;45.602;11.904;2023-02-18T03:48:16;87.97;;;38.83;;
64816;SDS011;53289;45.602;11.904;2023-02-18T03:50:41;90.95;;;41.70;;
64816;SDS011;53289;45.602;11.904;2023-02-18T03:53:07;88.78;;;37.20;;
64816;SDS011;53289;45.602;11.904;2023-02-18T03:55:33;84.90;;;38.72;;
64816;SDS011;53289;45.602;11.904;2023-02-18T03:57:59;108.20;;;45.60;;
64816;SDS011;53289;45.602;11.904;2023-02-18T04:00:24;92.28;;;39.65;;
64816;SDS011;53289;45.602;11.904;2023-02-18T04:02:50;95.72;;;42.42;;
64816;SDS011;53289;45.602;11.904;2023-02-18T04:05:16;101.15;;;44.20;;
64816;SDS011;53289;45.602;11.904;2023-02-18T04:07:42;109.43;;;46.22;;
64816;SDS011;53289;45.602;11.904;2023-02-18T04:10:07;109.10;;;47.38;;
64816;SDS011;53289;45.602;11.904;2023-02-18T04:12:34;106.63;;;45.15;;
64816;SDS011;53289;45.602;11.904;2023-02-18T04:14:59;106.57;;;47.08;;
64816;SDS011;53289;45.602;11.904;2023-02-18T04:17:25;81.75;;;36.78;;
64816;SDS011;53289;45.602;11.904;2023-02-18T04:19:51;103.80;;;45.55;;
64816;SDS011;53289;45.602;11.904;2023-02-18T04:22:17;87.78;;;38.70;;
64816;SDS011;53289;45.602;11.904;2023-02-18T04:24:42;77.72;;;35.03;;
64816;SDS011;53289;45.602;11.904;2023-02-18T04:27:08;82.32;;;34.88;;
64816;SDS011;53289;45.602;11.904;2023-02-18T04:29:34;89.25;;;39.33;;
64816;SDS011;53289;45.602;11.904;2023-02-18T04:31:59;90.78;;;38.75;;
64816;SDS011;53289;45.602;11.904;2023-02-18T04:34:25;86.50;;;36.58;;
64816;SDS011;53289;45.602;11.904;2023-02-18T04:36:51;97.22;;;41.70;;
64816;SDS011;53289;45.602;11.904;2023-02-18T04:39:17;91.57;;;38.35;;
64816;SDS011;53289;45.602;11.904;2023-02-18T04:41:42;95.63;;;40.60;;
64816;SDS011;53289;45.602;11.904;2023-02-18T04:44:08;95.35;;;41.40;;
64816;SDS011;53289;45.602;11.904;2023-02-18T04:46:34;87.53;;;35.72;;
64816;SDS011;53289;45.602;11.904;2023-02-18T04:49:00;74.50;;;33.67;;
64816;SDS011;53289;45.602;11.904;2023-02-18T04:51:26;82.57;;;35.05;;
64816;SDS011;53289;45.602;11.904;2023-02-18T04:53:52;82.13;;;35.70;;
64816;SDS011;53289;45.602;11.904;2023-02-18T04:56:18;101.30;;;42.17;;
64816;SDS011;53289;45.602;11.904;2023-02-18T04:58:44;102.03;;;41.42;;
64816;SDS011;53289;45.602;11.904;2023-02-18T05:01:10;86.78;;;35.38;;
64816;SDS011;53289;45.602;11.904;2023-02-18T05:03:37;78.20;;;33.22;;
64816;SDS011;53289;45.602;11.904;2023-02-18T05:06:03;89.60;;;38.58;;
64816;SDS011;53289;45.602;11.904;2023-02-18T05:08:29;92.20;;;38.25;;
64816;SDS011;53289;45.602;11.904;2023-02-18T05:10:55;80.57;;;34.40;;
64816;SDS011;53289;45.602;11.904;2023-02-18T05:13:21;81.28;;;34.78;;
64816;SDS011;53289;45.602;11.904;2023-02-18T05:15:47;79.25;;;34.72;;
64816;SDS011;53289;45.602;11.904;2023-02-18T05:18:13;93.95;;;40.03;;
64816;SDS011;53289;45.602;11.904;2023-02-18T05:20:39;102.55;;;42.75;;
64816;SDS011;53289;45.602;11.904;2023-02-18T05:23:05;80.75;;;33.95;;
64816;SDS011;53289;45.602;11.904;2023-02-18T05:25:31;98.55;;;42.00;;
64816;SDS011;53289;45.602;11.904;2023-02-18T05:27:56;72.88;;;31.13;;
64816;SDS011;53289;45.602;11.904;2023-02-18T05:30:22;72.95;;;30.63;;
64816;SDS011;53289;45.602;11.904;2023-02-18T05:32:49;78.80;;;34.70;;
64816;SDS011;53289;45.602;11.904;2023-02-18T05:35:14;89.85;;;35.55;;
64816;SDS011;53289;45.602;11.904;2023-02-18T05:37:40;81.72;;;35.88;;
64816;SDS011;53289;45.602;11.904;2023-02-18T05:40:06;69.55;;;31.77;;
64816;SDS011;53289;45.602;11.904;2023-02-18T05:42:32;92.43;;;37.28;;
64816;SDS011;53289;45.602;11.904;2023-02-18T05:44:59;83.78;;;36.30;;
64816;SDS011;53289;45.602;11.904;2023-02-18T05:47:25;87.30;;;35.35;;
64816;SDS011;53289;45.602;11.904;2023-02-18T05:49:50;83.20;;;35.05;;
64816;SDS011;53289;45.602;11.904;2023-02-18T05:52:17;102.32;;;38.28;;
64816;SDS011;53289;45.602;11.904;2023-02-18T05:54:42;77.40;;;32.40;;
64816;SDS011;53289;45.602;11.904;2023-02-18T05:57:09;80.47;;;32.03;;
64816;SDS011;53289;45.602;11.904;2023-02-18T05:59:37;83.15;;;33.15;;
64816;SDS011;53289;45.602;11.904;2023-02-18T06:04:34;94.43;;;36.53;;
64816;SDS011;53289;45.602;11.904;2023-02-18T06:07:00;87.65;;;37.03;;
64816;SDS011;53289;45.602;11.904;2023-02-18T06:09:26;94.70;;;34.15;;
64816;SDS011;53289;45.602;11.904;2023-02-18T06:11:52;108.88;;;40.30;;
64816;SDS011;53289;45.602;11.904;2023-02-18T06:14:18;109.25;;;39.80;;
64816;SDS011;53289;45.602;11.904;2023-02-18T06:16:44;94.38;;;38.65;;
64816;SDS011;53289;45.602;11.904;2023-02-18T06:19:10;122.60;;;46.63;;
64816;SDS011;53289;45.602;11.904;2023-02-18T06:21:36;115.43;;;43.40;;
64816;SDS011;53289;45.602;11.904;2023-02-18T06:24:01;83.28;;;35.30;;
64816;SDS011;53289;45.602;11.904;2023-02-18T06:26:27;89.55;;;36.20;;
64816;SDS011;53289;45.602;11.904;2023-02-18T06:28:53;84.82;;;34.67;;
64816;SDS011;53289;45.602;11.904;2023-02-18T06:31:19;81.38;;;34.70;;
64816;SDS011;53289;45.602;11.904;2023-02-18T06:33:45;82.88;;;34.88;;
64816;SDS011;53289;45.602;11.904;2023-02-18T06:36:11;88.13;;;32.90;;
64816;SDS011;53289;45.602;11.904;2023-02-18T06:38:38;91.20;;;35.90;;
64816;SDS011;53289;45.602;11.904;2023-02-18T06:41:06;89.20;;;37.33;;
64816;SDS011;53289;45.602;11.904;2023-02-18T06:43:32;79.30;;;34.75;;
64816;SDS011;53289;45.602;11.904;2023-02-18T06:45:58;96.50;;;37.03;;
64816;SDS011;53289;45.602;11.904;2023-02-18T06:48:23;109.95;;;41.42;;
64816;SDS011;53289;45.602;11.904;2023-02-18T06:50:49;108.18;;;41.38;;
64816;SDS011;53289;45.602;11.904;2023-02-18T06:53:15;103.75;;;39.20;;
64816;SDS011;53289;45.602;11.904;2023-02-18T06:55:42;110.80;;;42.95;;
64816;SDS011;53289;45.602;11.904;2023-02-18T07:00:38;125.72;;;47.75;;
64816;SDS011;53289;45.602;11.904;2023-02-18T07:03:04;90.55;;;37.30;;
64816;SDS011;53289;45.602;11.904;2023-02-18T07:05:30;116.20;;;47.05;;
64816;SDS011;53289;45.602;11.904;2023-02-18T07:07:56;101.50;;;40.80;;
64816;SDS011;53289;45.602;11.904;2023-02-18T07:10:22;87.93;;;37.00;;
64816;SDS011;53289;45.602;11.904;2023-02-18T07:12:48;128.13;;;50.92;;
64816;SDS011;53289;45.602;11.904;2023-02-18T07:15:14;134.30;;;51.28;;
64816;SDS011;53289;45.602;11.904;2023-02-18T07:17:40;101.22;;;40.70;;
64816;SDS011;53289;45.602;11.904;2023-02-18T07:20:06;113.68;;;43.13;;
64816;SDS011;53289;45.602;11.904;2023-02-18T07:22:32;126.78;;;49.63;;
64816;SDS011;53289;45.602;11.904;2023-02-18T07:24:58;121.85;;;48.20;;
64816;SDS011;53289;45.602;11.904;2023-02-18T07:27:24;126.40;;;49.35;;
64816;SDS011;53289;45.602;11.904;2023-02-18T07:29:50;116.50;;;47.83;;
64816;SDS011;53289;45.602;11.904;2023-02-18T07:32:17;101.32;;;39.10;;
64816;SDS011;53289;45.602;11.904;2023-02-18T07:34:43;98.00;;;39.25;;
64816;SDS011;53289;45.602;11.904;2023-02-18T07:37:10;125.60;;;46.83;;
64816;SDS011;53289;45.602;11.904;2023-02-18T07:39:42;114.35;;;40.05;;
64816;SDS011;53289;45.602;11.904;2023-02-18T07:42:09;114.80;;;43.78;;
64816;SDS011;53289;45.602;11.904;2023-02-18T07:44:36;130.82;;;48.42;;
64816;SDS011;53289;45.602;11.904;2023-02-18T07:47:04;121.53;;;48.28;;
64816;SDS011;53289;45.602;11.904;2023-02-18T07:49:32;104.45;;;40.45;;
64816;SDS011;53289;45.602;11.904;2023-02-18T07:51:59;130.95;;;52.67;;
64816;SDS011;53289;45.602;11.904;2023-02-18T07:54:25;114.28;;;49.22;;
64816;SDS011;53289;45.602;11.904;2023-02-18T07:56:52;101.65;;;43.50;;
64816;SDS011;53289;45.602;11.904;2023-02-18T07:59:21;119.00;;;44.55;;
64816;SDS011;53289;45.602;11.904;2023-02-18T08:01:47;121.15;;;45.80;;
64816;SDS011;53289;45.602;11.904;2023-02-18T08:04:12;126.53;;;46.63;;
64816;SDS011;53289;45.602;11.904;2023-02-18T08:06:40;109.53;;;40.92;;
64816;SDS011;53289;45.602;11.904;2023-02-18T08:09:10;129.20;;;47.83;;
64816;SDS011;53289;45.602;11.904;2023-02-18T08:11:36;116.32;;;43.22;;
64816;SDS011;53289;45.602;11.904;2023-02-18T08:14:02;125.63;;;46.08;;
64816;SDS011;53289;45.602;11.904;2023-02-18T08:16:28;124.50;;;46.28;;
64816;SDS011;53289;45.602;11.904;2023-02-18T08:18:54;137.48;;;51.78;;
64816;SDS011;53289;45.602;11.904;2023-02-18T08:21:20;120.00;;;45.33;;
64816;SDS011;53289;45.602;11.904;2023-02-18T08:23:48;124.18;;;47.53;;
64816;SDS011;53289;45.602;11.904;2023-02-18T08:26:14;128.25;;;46.80;;
64816;SDS011;53289;45.602;11.904;2023-02-18T08:28:41;121.60;;;45.13;;
64816;SDS011;53289;45.602;11.904;2023-02-18T08:31:26;127.05;;;52.25;;
64816;SDS011;53289;45.602;11.904;2023-02-18T08:33:54;131.32;;;51.88;;
64816;SDS011;53289;45.602;11.904;2023-02-18T08:36:22;129.02;;;49.75;;
64816;SDS011;53289;45.602;11.904;2023-02-18T08:38:48;144.93;;;53.97;;
64816;SDS011;53289;45.602;11.904;2023-02-18T08:41:14;135.00;;;50.80;;
64816;SDS011;53289;45.602;11.904;2023-02-18T08:43:40;115.60;;;45.08;;
64816;SDS011;53289;45.602;11.904;2023-02-18T08:46:07;129.50;;;46.25;;
64816;SDS011;53289;45.602;11.904;2023-02-18T08:48:32;146.85;;;54.42;;
64816;SDS011;53289;45.602;11.904;2023-02-18T08:50:58;123.50;;;45.78;;
64816;SDS011;53289;45.602;11.904;2023-02-18T08:53:24;150.40;;;53.33;;
64816;SDS011;53289;45.602;11.904;2023-02-18T08:55:50;131.27;;;46.05;;
64816;SDS011;53289;45.602;11.904;2023-02-18T08:58:16;109.28;;;44.60;;
64816;SDS011;53289;45.602;11.904;2023-02-18T09:00:43;112.05;;;41.63;;
64816;SDS011;53289;45.602;11.904;2023-02-18T09:03:13;125.80;;;44.38;;
64816;SDS011;53289;45.602;11.904;2023-02-18T09:05:40;112.13;;;41.38;;
64816;SDS011;53289;45.602;11.904;2023-02-18T09:08:06;123.22;;;45.00;;
64816;SDS011;53289;45.602;11.904;2023-02-18T09:10:32;108.65;;;41.00;;
64816;SDS011;53289;45.602;11.904;2023-02-18T09:12:59;128.30;;;45.00;;
64816;SDS011;53289;45.602;11.904;2023-02-18T09:15:24;134.77;;;45.53;;
64816;SDS011;53289;45.602;11.904;2023-02-18T09:17:50;131.27;;;46.97;;
64816;SDS011;53289;45.602;11.904;2023-02-18T09:20:16;114.22;;;40.72;;
64816;SDS011;53289;45.602;11.904;2023-02-18T09:22:42;124.88;;;45.97;;
64816;SDS011;53289;45.602;11.904;2023-02-18T09:25:08;126.63;;;46.05;;
64816;SDS011;53289;45.602;11.904;2023-02-18T09:27:34;107.60;;;40.67;;
64816;SDS011;53289;45.602;11.904;2023-02-18T09:30:00;104.18;;;37.67;;
64816;SDS011;53289;45.602;11.904;2023-02-18T09:32:26;92.43;;;37.50;;
64816;SDS011;53289;45.602;11.904;2023-02-18T09:34:52;121.80;;;42.25;;
64816;SDS011;53289;45.602;11.904;2023-02-18T09:37:18;95.03;;;36.72;;
64816;SDS011;53289;45.602;11.904;2023-02-18T09:39:43;118.97;;;41.13;;
64816;SDS011;53289;45.602;11.904;2023-02-18T09:42:11;118.50;;;43.25;;
64816;SDS011;53289;45.602;11.904;2023-02-18T09:44:45;117.78;;;45.40;;
64816;SDS011;53289;45.602;11.904;2023-02-18T09:50:10;118.45;;;44.17;;
64816;SDS011;53289;45.602;11.904;2023-02-18T09:52:44;111.75;;;42.88;;
64816;SDS011;53289;45.602;11.904;2023-02-18T09:55:21;98.18;;;37.63;;
64816;SDS011;53289;45.602;11.904;2023-02-18T09:58:00;124.30;;;47.03;;
64816;SDS011;53289;45.602;11.904;2023-02-18T10:00:38;115.95;;;44.65;;
64816;SDS011;53289;45.602;11.904;2023-02-18T10:03:10;107.60;;;40.58;;
64816;SDS011;53289;45.602;11.904;2023-02-18T10:05:41;86.25;;;36.50;;
64816;SDS011;53289;45.602;11.904;2023-02-18T10:08:20;85.40;;;34.05;;
64816;SDS011;53289;45.602;11.904;2023-02-18T10:10:50;115.22;;;44.80;;
64816;SDS011;53289;45.602;11.904;2023-02-18T10:13:20;99.15;;;37.83;;
64816;SDS011;53289;45.602;11.904;2023-02-18T10:15:48;79.40;;;32.13;;
64816;SDS011;53289;45.602;11.904;2023-02-18T10:18:23;84.45;;;32.63;;
64816;SDS011;53289;45.602;11.904;2023-02-18T10:21:00;91.70;;;36.25;;
64816;SDS011;53289;45.602;11.904;2023-02-18T10:23:31;102.38;;;41.20;;
64816;SDS011;53289;45.602;11.904;2023-02-18T10:26:01;94.40;;;39.72;;
64816;SDS011;53289;45.602;11.904;2023-02-18T10:28:31;102.20;;;39.75;;
64816;SDS011;53289;45.602;11.904;2023-02-18T10:31:04;93.38;;;37.13;;
64816;SDS011;53289;45.602;11.904;2023-02-18T10:33:35;105.70;;;41.20;;
64816;SDS011;53289;45.602;11.904;2023-02-18T10:36:15;98.03;;;40.83;;
64816;SDS011;53289;45.602;11.904;2023-02-18T10:39:01;97.90;;;40.78;;
64816;SDS011;53289;45.602;11.904;2023-02-18T10:47:30;102.68;;;41.53;;
64816;SDS011;53289;45.602;11.904;2023-02-18T10:50:25;91.18;;;37.00;;
64816;SDS011;53289;45.602;11.904;2023-02-18T10:52:58;101.43;;;41.90;;
64816;SDS011;53289;45.602;11.904;2023-02-18T10:55:37;87.28;;;36.55;;
64816;SDS011;53289;45.602;11.904;2023-02-18T10:58:22;80.97;;;34.75;;
64816;SDS011;53289;45.602;11.904;2023-02-18T11:00:51;99.47;;;42.47;;
64816;SDS011;53289;45.602;11.904;2023-02-18T11:03:19;86.25;;;37.83;;
64816;SDS011;53289;45.602;11.904;2023-02-18T11:05:50;101.22;;;41.13;;
64816;SDS011;53289;45.602;11.904;2023-02-18T11:08:20;95.35;;;39.08;;
64816;SDS011;53289;45.602;11.904;2023-02-18T11:10:52;82.75;;;36.88;;
64816;SDS011;53289;45.602;11.904;2023-02-18T11:13:26;105.78;;;43.05;;
64816;SDS011;53289;45.602;11.904;2023-02-18T11:15:57;86.70;;;38.72;;
64816;SDS011;53289;45.602;11.904;2023-02-18T11:18:40;96.20;;;39.92;;
64816;SDS011;53289;45.602;11.904;2023-02-18T11:21:21;96.18;;;40.47;;
64816;SDS011;53289;45.602;11.904;2023-02-18T11:23:54;87.97;;;37.95;;
64816;SDS011;53289;45.602;11.904;2023-02-18T11:26:24;95.35;;;38.42;;
64816;SDS011;53289;45.602;11.904;2023-02-18T11:28:51;93.10;;;39.97;;
64816;SDS011;53289;45.602;11.904;2023-02-18T11:31:26;94.30;;;39.63;;
64816;SDS011;53289;45.602;11.904;2023-02-18T11:34:13;94.60;;;39.22;;
64816;SDS011;53289;45.602;11.904;2023-02-18T11:36:45;88.88;;;38.60;;
64816;SDS011;53289;45.602;11.904;2023-02-18T11:39:22;93.80;;;38.90;;
64816;SDS011;53289;45.602;11.904;2023-02-18T11:49:31;88.28;;;38.15;;
64816;SDS011;53289;45.602;11.904;2023-02-18T11:52:03;98.40;;;42.67;;
64816;SDS011;53289;45.602;11.904;2023-02-18T11:54:30;93.30;;;40.42;;
64816;SDS011;53289;45.602;11.904;2023-02-18T11:56:57;100.10;;;43.25;;
64816;SDS011;53289;45.602;11.904;2023-02-18T11:59:31;94.47;;;42.10;;
64816;SDS011;53289;45.602;11.904;2023-02-18T12:07:16;97.32;;;42.45;;
64816;SDS011;53289;45.602;11.904;2023-02-18T12:09:53;96.60;;;42.70;;
64816;SDS011;53289;45.602;11.904;2023-02-18T12:12:35;78.60;;;37.03;;
64816;SDS011;53289;45.602;11.904;2023-02-18T12:15:13;89.25;;;37.88;;
64816;SDS011;53289;45.602;11.904;2023-02-18T12:20:46;98.50;;;45.70;;
64816;SDS011;53289;45.602;11.904;2023-02-18T12:23:34;95.00;;;44.15;;
64816;SDS011;53289;45.602;11.904;2023-02-18T12:26:35;93.78;;;41.63;;
64816;SDS011;53289;45.602;11.904;2023-02-18T12:32:47;82.20;;;38.28;;
64816;SDS011;53289;45.602;11.904;2023-02-18T12:35:28;84.80;;;37.15;;
64816;SDS011;53289;45.602;11.904;2023-02-18T12:38:14;85.07;;;38.38;;
64816;SDS011;53289;45.602;11.904;2023-02-18T12:43:59;87.05;;;39.88;;
64816;SDS011;53289;45.602;11.904;2023-02-18T12:46:37;88.63;;;39.78;;
64816;SDS011;53289;45.602;11.904;2023-02-18T12:58:10;94.15;;;42.03;;
64816;SDS011;53289;45.602;11.904;2023-02-18T13:06:37;75.90;;;35.78;;
64816;SDS011;53289;45.602;11.904;2023-02-18T13:14:30;80.43;;;39.03;;
64816;SDS011;53289;45.602;11.904;2023-02-18T13:17:03;99.90;;;46.53;;
64816;SDS011;53289;45.602;11.904;2023-02-18T13:19:38;101.40;;;47.45;;
64816;SDS011;53289;45.602;11.904;2023-02-18T13:22:13;98.15;;;45.03;;
64816;SDS011;53289;45.602;11.904;2023-02-18T13:24:42;100.53;;;45.88;;
64816;SDS011;53289;45.602;11.904;2023-02-18T13:27:30;99.47;;;45.05;;
64816;SDS011;53289;45.602;11.904;2023-02-18T13:35:40;93.15;;;40.97;;
64816;SDS011;53289;45.602;11.904;2023-02-18T13:41:22;86.05;;;38.30;;
64816;SDS011;53289;45.602;11.904;2023-02-18T13:43:51;94.80;;;42.22;;
64816;SDS011;53289;45.602;11.904;2023-02-18T13:46:18;102.68;;;46.05;;
64816;SDS011;53289;45.602;11.904;2023-02-18T13:57:21;97.93;;;44.45;;
64816;SDS011;53289;45.602;11.904;2023-02-18T13:59:50;86.45;;;38.40;;
64816;SDS011;53289;45.602;11.904;2023-02-18T14:12:41;88.97;;;39.53;;
64816;SDS011;53289;45.602;11.904;2023-02-18T14:28:35;82.65;;;38.25;;
64816;SDS011;53289;45.602;11.904;2023-02-18T14:31:05;88.18;;;39.13;;
64816;SDS011;53289;45.602;11.904;2023-02-18T14:40:07;76.68;;;35.53;;
64816;SDS011;53289;45.602;11.904;2023-02-18T14:48:18;76.07;;;35.92;;
64816;SDS011;53289;45.602;11.904;2023-02-18T14:51:05;89.68;;;39.10;;
64816;SDS011;53289;45.602;11.904;2023-02-18T14:53:42;65.97;;;33.97;;
64816;SDS011;53289;45.602;11.904;2023-02-18T14:56:09;97.40;;;39.47;;
64816;SDS011;53289;45.602;11.904;2023-02-18T14:58:40;77.68;;;37.50;;
64816;SDS011;53289;45.602;11.904;2023-02-18T15:01:19;82.57;;;38.80;;
64816;SDS011;53289;45.602;11.904;2023-02-18T15:03:46;76.20;;;36.08;;
64816;SDS011;53289;45.602;11.904;2023-02-18T15:06:33;99.15;;;44.35;;
64816;SDS011;53289;45.602;11.904;2023-02-18T15:09:01;104.78;;;48.97;;
64816;SDS011;53289;45.602;11.904;2023-02-18T15:14:25;76.15;;;34.50;;
64816;SDS011;53289;45.602;11.904;2023-02-18T15:16:54;71.53;;;35.50;;
64816;SDS011;53289;45.602;11.904;2023-02-18T15:19:22;87.47;;;41.03;;
64816;SDS011;53289;45.602;11.904;2023-02-18T15:21:52;89.13;;;40.17;;
64816;SDS011;53289;45.602;11.904;2023-02-18T15:24:25;69.70;;;34.08;;
64816;SDS011;53289;45.602;11.904;2023-02-18T15:26:52;75.32;;;35.38;;
64816;SDS011;53289;45.602;11.904;2023-02-18T15:29:22;69.00;;;33.85;;
64816;SDS011;53289;45.602;11.904;2023-02-18T15:31:49;90.15;;;41.55;;
64816;SDS011;53289;45.602;11.904;2023-02-18T15:36:54;89.60;;;38.55;;
64816;SDS011;53289;45.602;11.904;2023-02-18T15:39:21;73.68;;;35.38;;
64816;SDS011;53289;45.602;11.904;2023-02-18T15:41:55;85.30;;;39.83;;
64816;SDS011;53289;45.602;11.904;2023-02-18T15:44:37;87.47;;;39.00;;
64816;SDS011;53289;45.602;11.904;2023-02-18T15:47:08;98.25;;;46.60;;
64816;SDS011;53289;45.602;11.904;2023-02-18T15:49:35;83.78;;;38.38;;
64816;SDS011;53289;45.602;11.904;2023-02-18T15:52:03;77.93;;;37.47;;
64816;SDS011;53289;45.602;11.904;2023-02-18T15:54:33;82.30;;;38.10;;
64816;SDS011;53289;45.602;11.904;2023-02-18T15:57:03;92.22;;;42.55;;
64816;SDS011;53289;45.602;11.904;2023-02-18T16:02:21;93.13;;;45.35;;
64816;SDS011;53289;45.602;11.904;2023-02-18T16:04:54;103.95;;;44.97;;
64816;SDS011;53289;45.602;11.904;2023-02-18T16:07:27;89.30;;;37.85;;
64816;SDS011;53289;45.602;11.904;2023-02-18T16:12:40;74.47;;;34.30;;
64816;SDS011;53289;45.602;11.904;2023-02-18T16:15:10;78.78;;;36.67;;
64816;SDS011;53289;45.602;11.904;2023-02-18T16:17:46;85.15;;;37.58;;
64816;SDS011;53289;45.602;11.904;2023-02-18T16:20:17;95.82;;;44.33;;
64816;SDS011;53289;45.602;11.904;2023-02-18T16:23:02;80.50;;;37.97;;
64816;SDS011;53289;45.602;11.904;2023-02-18T16:28:11;99.93;;;42.83;;
64816;SDS011;53289;45.602;11.904;2023-02-18T16:30:46;111.65;;;49.90;;
64816;SDS011;53289;45.602;11.904;2023-02-18T16:33:12;95.57;;;43.97;;
64816;SDS011;53289;45.602;11.904;2023-02-18T16:35:38;99.25;;;45.03;;
64816;SDS011;53289;45.602;11.904;2023-02-18T16:38:04;86.13;;;40.40;;
64816;SDS011;53289;45.602;11.904;2023-02-18T16:43:08;87.13;;;42.67;;
64816;SDS011;53289;45.602;11.904;2023-02-18T16:45:45;104.88;;;45.72;;
64816;SDS011;53289;45.602;11.904;2023-02-18T16:48:20;100.97;;;47.35;;
64816;SDS011;53289;45.602;11.904;2023-02-18T16:50:48;111.65;;;49.95;;
64816;SDS011;53289;45.602;11.904;2023-02-18T16:53:16;116.07;;;53.13;;
64816;SDS011;53289;45.602;11.904;2023-02-18T16:55:42;118.50;;;56.22;;
64816;SDS011;53289;45.602;11.904;2023-02-18T16:58:08;120.63;;;55.88;;
64816;SDS011;53289;45.602;11.904;2023-02-18T17:00:33;123.47;;;56.22;;
64816;SDS011;53289;45.602;11.904;2023-02-18T17:02:59;109.00;;;50.83;;
64816;SDS011;53289;45.602;11.904;2023-02-18T17:05:27;112.30;;;51.88;;